Port Lavaca, TX

2:07 AM CST on February 23, 2018 (GMT -0600)
Alamo heights | | Change Station
Active Advisory: Special Statement

Elev 36 ft 28.61 °N, 96.63 °W | Updated 4 seconds ago

Fog
Fog
53.4 °F
Feels Like 53.4 °F
N
6.0
Wind Variable Wind from North
Gusts 8.0 mph

Today
High -- | Low -- °F
--% Chance of Precip.
Yesterday
High -- | Low -- °F
Precip. -- in
Pressure 30.20 in
Visibility 0.8 miles
Clouds Overcast 300 ft
Dew Point 53 °F
Humidity 98%
Rainfall 0.00 in
Snow Depth Not available.
6:57 AM 6:22 PM
Waxing Crescent, 50% visible
METAR KPKV 230755Z AUTO 01007KT 3/4SM BR OVC003 11/11 A3020 RMK AO2 T01100105
Pressure 30.20 in
Visibility 0.8 miles
Clouds Overcast 300 ft
Dew Point 53 °F
Humidity 98%
Rainfall 0.00 in
Snow Depth Not available.
6:57 AM 6:22 PM
Waxing Crescent, 50% visible
METAR KPKV 230755Z AUTO 01007KT 3/4SM BR OVC003 11/11 A3020 RMK AO2 T01100105

Get Your Daily Forecast Email!

Thanks for signing up!

Be on the lookout for a verification email in your inbox.

You'll start receiving severe weather alerts in your inbox..

×

10-Day Weather Forecast

Almanac

Astronomy

Feb. 23, 2018 Rise Set
Actual Time
Civil Twilight
Nautical Twilight
Astronomical Twilight
Moon
Length of Visible Light
Length of Day
Tomorrow will be .
, % of the Moon is Illuminated

Today's Extremes

State Highs State Lows

Community

WunderPhotos

Category 6

Welcome to Category 6. This is the collective home for Weather Underground's featured writeups by Dr. Jeff Masters (right), Bob Henson (left), Chris Burt, and other regular contributors.

Nearby

Air Quality

  Air Quality AQ Index Pollutant
Not available.

Snow Depth

Station Depth Elevation

Earthquake Activity

City Distance Mag. Time & Date
Minimum magnitude displayed is 2.5.

Coastal Water Temperatures

Place Temperature

Stations

Nearby Weather Stations

Station Location Temp. Windchill Dew Point Humidity Wind Precip. Elev Updated Type
                   

Watches & Warnings

Special Statement
Issued: 11:59 PM CST Feb. 22, 2018 – National Weather Service

... Areas of fog over the eastern brush country, coastal Bend and
Victoria Crossroads...

Areas of fog continue to develop over the eastern brush country,
coastal Bend and Victoria Crossroads through Friday morning.
Visibilities within this region will vary significantly from 1 to
3 miles. However, patchy dense fog with visibilities around 1/4
mile or less will be possible at times.

Visibilities are expected to improve during the mid morning hours
as temperatures increase slightly and contribute to fog
dissipation.

Please use caution when traveling and prepare for rapidly
changing visibilities. Always use low beam headlights and slow
down when encountering fog. Allow extra time to reach your
destination.